createdAt,value
2018-04-01T00:00:11.446Z,4.71
2018-04-01T00:01:11.437Z,4.74
2018-04-01T00:02:11.422Z,4.66
2018-04-01T00:03:11.406Z,4.67
2018-04-01T00:04:11.393Z,4.59
2018-04-01T00:05:11.380Z,4.49
2018-04-01T00:06:11.366Z,4.52
2018-04-01T00:07:11.353Z,4.42
2018-04-01T00:08:11.364Z,4.41
2018-04-01T00:09:11.331Z,4.48
2018-04-01T00:10:11.363Z,4.38
2018-04-01T00:11:11.299Z,4.42
2018-04-01T00:12:11.289Z,4.42
2018-04-01T00:13:11.290Z,4.45
2018-04-01T00:14:11.287Z,4.42
2018-04-01T00:15:11.245Z,4.48
2018-04-01T00:16:11.279Z,4.45
2018-04-01T00:17:11.218Z,4.42
2018-04-01T00:18:11.205Z,4.44
2018-04-01T00:19:11.203Z,4.38
2018-04-01T00:20:11.178Z,4.40
2018-04-01T00:21:11.164Z,4.49
2018-04-01T00:22:11.151Z,4.42
2018-04-01T00:23:11.137Z,4.44
2018-04-01T00:24:11.124Z,4.48
2018-04-01T00:25:11.111Z,4.52
2018-04-01T00:26:11.118Z,4.66
2018-04-01T00:27:11.083Z,4.71
2018-04-01T00:28:11.086Z,4.75
2018-04-01T00:29:11.057Z,4.68
2018-04-01T00:30:11.043Z,4.71
2018-04-01T00:31:11.028Z,4.77
2018-04-01T00:32:11.016Z,4.73
2018-04-01T00:33:11.003Z,4.73
2018-04-01T00:34:11.000Z,4.68
2018-04-01T00:35:10.979Z,4.71
2018-04-01T00:36:10.961Z,4.77
2018-04-01T00:37:10.948Z,4.78
2018-04-01T00:38:10.935Z,4.90
2018-04-01T00:39:10.922Z,4.90
2018-04-01T00:40:10.907Z,4.96
2018-04-01T00:41:10.894Z,4.86
2018-04-01T00:42:10.881Z,4.89
2018-04-01T00:43:10.866Z,4.87
2018-04-01T00:44:10.866Z,4.86
2018-04-01T00:45:11.066Z,4.78
2018-04-01T00:46:10.834Z,4.86
2018-04-01T00:47:10.821Z,4.92
2018-04-01T00:48:10.821Z,4.92
2018-04-01T00:49:10.786Z,4.92
2018-04-01T00:50:10.782Z,4.77
2018-04-01T00:51:10.979Z,4.80
2018-04-01T00:52:10.749Z,4.90
2018-04-01T00:53:10.733Z,4.89
2018-04-01T00:54:10.735Z,4.84
2018-04-01T00:55:10.706Z,4.84
2018-04-01T00:56:10.692Z,4.89
2018-04-01T00:57:10.679Z,4.89
2018-04-01T00:58:10.667Z,4.96
2018-04-01T00:59:10.652Z,4.99
2018-04-01T01:00:10.639Z,5.10
2018-04-01T01:01:10.648Z,5.17
2018-04-01T01:02:10.615Z,5.25
2018-04-01T01:03:10.622Z,5.28
2018-04-01T01:04:10.587Z,5.30
2018-04-01T01:05:10.605Z,5.23
2018-04-01T01:06:10.561Z,5.25
2018-04-01T01:07:10.562Z,5.28
2018-04-01T01:08:10.573Z,5.32
2018-04-01T01:09:10.528Z,5.28
2018-04-01T01:10:10.508Z,5.26
2018-04-01T01:11:10.522Z,5.30
2018-04-01T01:12:10.481Z,5.43
2018-04-01T01:13:10.469Z,5.35
2018-04-01T01:14:10.456Z,5.39
2018-04-01T01:15:10.442Z,5.35
2018-04-01T01:16:10.429Z,5.32
2018-04-01T01:17:10.416Z,5.33
2018-04-01T01:18:10.409Z,5.44
2018-04-01T01:19:10.395Z,5.43
2018-04-01T01:20:10.402Z,5.47
2018-04-01T01:21:10.364Z,5.47
2018-04-01T01:22:10.351Z,5.48
2018-04-01T01:23:10.338Z,5.51
2018-04-01T01:24:10.332Z,5.54
2018-04-01T01:25:10.317Z,5.61
2018-04-01T01:26:10.317Z,5.56
2018-04-01T01:27:10.285Z,5.59
2018-04-01T01:28:10.273Z,5.54
2018-04-01T01:29:10.260Z,5.57
2018-04-01T01:30:10.247Z,5.61
2018-04-01T01:31:10.233Z,5.57
2018-04-01T01:32:10.220Z,5.53
2018-04-01T01:33:10.207Z,5.66
2018-04-01T01:34:10.194Z,5.69
2018-04-01T01:35:10.182Z,5.68
2018-04-01T01:36:10.183Z,5.65
2018-04-01T01:37:10.206Z,5.68
2018-04-01T01:38:10.149Z,5.73
2018-04-01T01:39:10.128Z,5.75
2018-04-01T01:40:10.138Z,5.79
2018-04-01T01:41:10.103Z,5.75
2018-04-01T01:42:10.100Z,5.84
2018-04-01T01:43:10.298Z,5.82
2018-04-01T01:44:10.069Z,5.82
2018-04-01T01:45:10.056Z,5.87
2018-04-01T01:46:10.053Z,5.80
2018-04-01T01:47:10.024Z,5.91
2018-04-01T01:48:10.022Z,5.86
2018-04-01T01:49:09.998Z,5.80
2018-04-01T01:50:09.985Z,5.84
2018-04-01T01:51:09.972Z,5.89
2018-04-01T01:52:09.959Z,5.89
2018-04-01T01:53:09.966Z,5.94
2018-04-01T01:54:09.934Z,6.04
2018-04-01T01:55:09.939Z,6.02
2018-04-01T01:56:09.907Z,5.97
2018-04-01T01:57:09.894Z,5.98
2018-04-01T01:58:09.881Z,5.98
2018-04-01T01:59:09.888Z,5.94
2018-04-01T02:00:09.855Z,5.94
2018-04-01T02:01:09.854Z,5.99
2018-04-01T02:02:09.855Z,5.97
2018-04-01T02:03:09.816Z,5.94
2018-04-01T02:04:09.802Z,5.97
2018-04-01T02:05:09.789Z,5.87
2018-04-01T02:06:09.777Z,5.84
2018-04-01T02:07:09.763Z,5.87
2018-04-01T02:08:09.750Z,5.89
2018-04-01T02:09:09.737Z,5.82
2018-04-01T02:10:09.738Z,5.83
2018-04-01T02:11:09.938Z,5.84
2018-04-01T02:12:09.710Z,5.75
2018-04-01T02:13:09.685Z,5.73
2018-04-01T02:14:09.700Z,5.75
2018-04-01T02:15:09.658Z,5.73
2018-04-01T02:16:09.659Z,5.72
2018-04-01T02:17:09.686Z,5.73
2018-04-01T02:18:09.629Z,5.72
2018-04-01T02:19:09.604Z,5.71
2018-04-01T02:20:09.616Z,5.65
2018-04-01T02:21:09.579Z,5.61
2018-04-01T02:22:09.566Z,5.57
2018-04-01T02:23:09.553Z,5.48
2018-04-01T02:24:09.539Z,5.54
2018-04-01T02:25:09.531Z,5.48
2018-04-01T02:26:09.512Z,5.47
2018-04-01T02:27:09.502Z,5.50
2018-04-01T02:28:09.492Z,5.43
2018-04-01T02:29:09.498Z,5.44
2018-04-01T02:30:09.461Z,5.41
2018-04-01T02:31:09.446Z,5.46
2018-04-01T02:32:09.434Z,5.43
2018-04-01T02:33:09.429Z,5.46
2018-04-01T02:34:09.421Z,5.46
2018-04-01T02:35:09.416Z,5.47
2018-04-01T02:36:09.378Z,5.41
2018-04-01T02:37:09.371Z,5.46
2018-04-01T02:38:09.351Z,5.44
2018-04-01T02:39:09.337Z,5.46
2018-04-01T02:40:09.324Z,5.36
2018-04-01T02:41:09.309Z,5.43
2018-04-01T02:42:09.297Z,5.35
2018-04-01T02:43:09.281Z,5.43
2018-04-01T02:44:09.269Z,5.35
2018-04-01T02:45:09.274Z,5.39
2018-04-01T02:46:09.263Z,5.38
2018-04-01T02:47:09.246Z,5.38
2018-04-01T02:48:09.220Z,5.38
2018-04-01T02:49:09.241Z,5.33
2018-04-01T02:50:09.189Z,5.26
2018-04-01T02:51:09.175Z,5.23
2018-04-01T02:52:09.167Z,5.30
2018-04-01T02:53:09.161Z,5.29
2018-04-01T02:54:09.134Z,5.26
2018-04-01T02:55:09.151Z,5.30
2018-04-01T02:56:09.109Z,5.26
2018-04-01T02:57:09.095Z,5.25
2018-04-01T02:58:09.082Z,5.28
2018-04-01T02:59:09.068Z,5.29
2018-04-01T03:00:09.054Z,5.30
2018-04-01T03:01:09.041Z,5.44
2018-04-01T03:02:09.028Z,5.35
2018-04-01T03:03:09.019Z,5.41
2018-04-01T03:04:09.018Z,5.32
2018-04-01T03:05:08.989Z,5.33
2018-04-01T03:06:08.986Z,5.41
2018-04-01T03:07:08.961Z,5.29
2018-04-01T03:08:08.947Z,5.29
2018-04-01T03:09:08.935Z,5.25
2018-04-01T03:10:08.931Z,5.35
2018-04-01T03:11:08.914Z,5.25
2018-04-01T03:12:08.901Z,5.21
2018-04-01T03:13:08.881Z,5.26
2018-04-01T03:14:08.868Z,5.33
2018-04-01T03:15:08.855Z,5.21
2018-04-01T03:16:08.841Z,5.28
2018-04-01T03:17:08.828Z,5.25
2018-04-01T03:18:08.815Z,5.32
2018-04-01T03:19:08.801Z,5.28
2018-04-01T03:20:08.788Z,5.25
2018-04-01T03:21:08.798Z,5.30
2018-04-01T03:22:08.768Z,5.26
2018-04-01T03:23:08.796Z,5.29
2018-04-01T03:24:08.735Z,5.30
2018-04-01T03:25:08.722Z,5.29
2018-04-01T03:26:08.723Z,5.30
2018-04-01T03:27:08.722Z,5.28
2018-04-01T03:28:08.682Z,5.28
2018-04-01T03:29:08.710Z,5.28
2018-04-01T03:30:08.657Z,5.28
2018-04-01T03:31:08.647Z,5.28
2018-04-01T03:32:08.636Z,5.35
2018-04-01T03:33:08.620Z,5.36
2018-04-01T03:34:08.603Z,5.26
2018-04-01T03:35:08.589Z,5.38
2018-04-01T03:36:08.576Z,5.33
2018-04-01T03:37:08.564Z,5.33
2018-04-01T03:38:08.569Z,5.23
2018-04-01T03:39:08.555Z,5.35
2018-04-01T03:40:08.525Z,5.35
2018-04-01T03:41:08.521Z,5.28
2018-04-01T03:42:08.504Z,5.29
2018-04-01T03:43:08.486Z,5.28
2018-04-01T03:44:08.470Z,5.36
2018-04-01T03:45:08.469Z,5.32
2018-04-01T03:46:08.444Z,5.29
2018-04-01T03:47:08.437Z,5.43
2018-04-01T03:48:08.419Z,5.32
2018-04-01T03:49:08.405Z,5.38
2018-04-01T03:50:08.394Z,5.43
2018-04-01T03:51:08.377Z,5.38
2018-04-01T03:52:08.365Z,5.36
2018-04-01T03:53:08.352Z,5.32
2018-04-01T03:54:08.340Z,5.44
2018-04-01T03:55:08.326Z,5.46
2018-04-01T03:56:08.338Z,5.46
2018-04-01T03:57:08.308Z,5.47
2018-04-01T03:58:08.331Z,5.47
2018-04-01T03:59:08.271Z,5.41
2018-04-01T04:00:08.258Z,5.39
2018-04-01T04:01:08.258Z,5.43
2018-04-01T04:02:08.264Z,5.35
2018-04-01T04:03:08.222Z,5.35
2018-04-01T04:04:08.205Z,5.32
2018-04-01T04:05:08.196Z,5.30
2018-04-01T04:06:08.179Z,5.35
2018-04-01T04:07:08.165Z,5.46
2018-04-01T04:08:08.151Z,5.32
2018-04-01T04:09:08.138Z,5.29
2018-04-01T04:10:08.124Z,5.21
2018-04-01T04:11:08.109Z,5.35
2018-04-01T04:12:08.096Z,5.35
2018-04-01T04:13:08.083Z,5.41
2018-04-01T04:14:08.094Z,5.43
2018-04-01T04:15:08.059Z,5.36
2018-04-01T04:16:08.257Z,5.43
2018-04-01T04:17:08.028Z,5.38
2018-04-01T04:18:08.015Z,5.35
2018-04-01T04:19:08.013Z,5.30
2018-04-01T04:20:08.016Z,5.33
2018-04-01T04:21:07.974Z,5.32
2018-04-01T04:22:08.002Z,5.43
2018-04-01T04:23:07.946Z,5.39
2018-04-01T04:24:07.933Z,5.33
2018-04-01T04:25:07.943Z,5.35
2018-04-01T04:26:07.907Z,5.39
2018-04-01T04:27:07.893Z,5.41
2018-04-01T04:28:07.879Z,5.41
2018-04-01T04:29:07.866Z,5.47
2018-04-01T04:30:07.853Z,5.47
2018-04-01T04:31:07.839Z,5.44
2018-04-01T04:32:07.847Z,5.47
2018-04-01T04:33:07.816Z,5.43
2018-04-01T04:34:07.818Z,5.36
2018-04-01T04:35:07.787Z,5.41
2018-04-01T04:36:07.775Z,5.41
2018-04-01T04:37:07.809Z,5.38
2018-04-01T04:38:07.764Z,5.53
2018-04-01T04:39:07.731Z,5.48
2018-04-01T04:40:07.736Z,5.53
2018-04-01T04:41:07.705Z,5.50
2018-04-01T04:42:07.692Z,5.38
2018-04-01T04:43:07.677Z,5.47
2018-04-01T04:44:07.664Z,5.47
2018-04-01T04:45:07.651Z,5.51
2018-04-01T04:46:07.638Z,5.39
2018-04-01T04:47:07.624Z,5.61
2018-04-01T04:48:07.611Z,5.53
2018-04-01T04:49:07.598Z,5.53
2018-04-01T04:50:07.604Z,5.59
2018-04-01T04:51:07.631Z,5.53
2018-04-01T04:52:07.576Z,5.57
2018-04-01T04:53:07.545Z,5.56
2018-04-01T04:54:07.532Z,5.56
2018-04-01T04:55:07.518Z,5.51
2018-04-01T04:56:07.504Z,5.50
2018-04-01T04:57:07.494Z,5.56
2018-04-01T04:58:07.479Z,5.47
2018-04-01T04:59:07.465Z,5.56
2018-04-01T05:00:07.459Z,5.56
2018-04-01T05:01:07.440Z,5.59
2018-04-01T05:02:07.448Z,5.57
2018-04-01T05:03:07.441Z,5.51
2018-04-01T05:04:07.638Z,5.56
2018-04-01T05:05:07.387Z,5.53
2018-04-01T05:06:07.373Z,5.65
2018-04-01T05:07:07.383Z,5.59
2018-04-01T05:08:07.346Z,5.57
2018-04-01T05:09:07.333Z,5.59
2018-04-01T05:10:07.320Z,5.54
2018-04-01T05:11:07.306Z,5.50
2018-04-01T05:12:07.293Z,5.57
2018-04-01T05:13:07.279Z,5.54
2018-04-01T05:14:07.290Z,5.57
2018-04-01T05:15:07.253Z,5.53
2018-04-01T05:16:07.311Z,5.54
2018-04-01T05:17:07.248Z,5.53
2018-04-01T05:18:07.213Z,5.56
2018-04-01T05:19:07.200Z,5.57
2018-04-01T05:20:07.187Z,5.56
2018-04-01T05:21:07.181Z,5.61
2018-04-01T05:22:07.160Z,5.54
2018-04-01T05:23:07.147Z,5.59
2018-04-01T05:24:07.138Z,5.61
2018-04-01T05:25:07.128Z,5.56
2018-04-01T05:26:07.108Z,5.53
2018-04-01T05:27:07.134Z,5.57
2018-04-01T05:28:07.081Z,5.61
2018-04-01T05:29:07.271Z,5.61
2018-04-01T05:30:07.057Z,5.61
2018-04-01T05:31:07.041Z,5.71
2018-04-01T05:32:07.028Z,5.59
2018-04-01T05:33:07.016Z,5.65
2018-04-01T05:34:07.002Z,5.65
2018-04-01T05:35:06.993Z,5.64
2018-04-01T05:36:06.974Z,5.62
2018-04-01T05:37:06.962Z,5.69
2018-04-01T05:38:06.948Z,5.54
2018-04-01T05:39:07.017Z,5.57
2018-04-01T05:40:06.925Z,5.68
2018-04-01T05:41:06.910Z,5.64
2018-04-01T05:42:07.102Z,5.62
2018-04-01T05:43:06.883Z,5.65
2018-04-01T05:44:06.870Z,5.56
2018-04-01T05:45:06.911Z,5.50
2018-04-01T05:46:06.847Z,5.50
2018-04-01T05:47:06.826Z,5.57
2018-04-01T05:48:06.813Z,5.54
2018-04-01T05:49:06.848Z,5.56
2018-04-01T05:50:06.792Z,5.48
2018-04-01T05:51:06.773Z,5.50
2018-04-01T05:52:06.770Z,5.44
2018-04-01T05:53:06.749Z,5.43
2018-04-01T05:54:06.736Z,5.36
2018-04-01T05:55:06.721Z,5.33
2018-04-01T05:56:06.707Z,5.33
2018-04-01T05:57:06.692Z,5.41
2018-04-01T05:58:06.679Z,5.33
2018-04-01T05:59:06.666Z,5.28
2018-04-01T06:00:06.693Z,5.36
2018-04-01T06:01:06.637Z,5.29
2018-04-01T06:02:06.623Z,5.26
2018-04-01T06:03:06.618Z,5.29
2018-04-01T06:04:06.595Z,5.28
2018-04-01T06:05:06.581Z,5.28
2018-04-01T06:07:06.554Z,5.32
2018-04-01T06:08:06.540Z,5.20
2018-04-01T06:09:06.566Z,5.23
2018-04-01T06:10:06.513Z,5.29
2018-04-01T06:11:06.498Z,5.29
2018-04-01T06:12:06.505Z,5.18
2018-04-01T06:13:06.473Z,5.14
2018-04-01T06:14:06.458Z,5.20
2018-04-01T06:15:06.446Z,5.20
2018-04-01T06:16:06.429Z,5.18
2018-04-01T06:17:06.417Z,5.17
2018-04-01T06:18:06.403Z,5.15
2018-04-01T06:19:06.388Z,5.17
2018-04-01T06:20:06.375Z,5.14
2018-04-01T06:21:06.361Z,5.26
2018-04-01T06:22:06.347Z,5.15
2018-04-01T06:23:06.434Z,5.17
2018-04-01T06:24:06.319Z,5.17
2018-04-01T06:25:06.305Z,5.25
2018-04-01T06:26:06.343Z,5.18
2018-04-01T06:27:06.279Z,5.20
2018-04-01T06:28:06.268Z,5.20
2018-04-01T06:29:06.302Z,5.20
2018-04-01T06:30:06.236Z,5.18
2018-04-01T06:31:06.224Z,5.05
2018-04-01T06:32:06.242Z,5.17
2018-04-01T06:33:06.195Z,5.12
2018-04-01T06:34:06.180Z,5.26
2018-04-01T06:35:06.165Z,5.15
2018-04-01T06:36:06.152Z,5.17
2018-04-01T06:37:06.139Z,5.26
2018-04-01T06:38:06.125Z,5.26
2018-04-01T06:39:06.118Z,5.29
2018-04-01T06:40:06.124Z,5.23
2018-04-01T06:41:06.087Z,5.25
2018-04-01T06:42:06.070Z,5.29
2018-04-01T06:43:06.057Z,5.30
2018-04-01T06:44:06.047Z,5.29
2018-04-01T06:45:06.033Z,5.26
2018-04-01T06:46:06.097Z,5.33
2018-04-01T06:47:06.004Z,5.28
2018-04-01T06:48:05.993Z,5.28
2018-04-01T06:49:06.180Z,5.29
2018-04-01T06:50:05.968Z,5.32
2018-04-01T06:51:05.952Z,5.30
2018-04-01T06:52:05.984Z,5.26
2018-04-01T06:53:05.924Z,5.30
2018-04-01T06:54:05.910Z,5.33
2018-04-01T06:55:05.898Z,5.33
2018-04-01T06:56:05.883Z,5.25
2018-04-01T06:57:05.870Z,5.26
2018-04-01T06:58:05.860Z,5.30
2018-04-01T06:59:05.845Z,5.29
2018-04-01T07:00:05.831Z,5.21
2018-04-01T07:01:05.820Z,5.35
2018-04-01T07:02:05.807Z,5.28
2018-04-01T07:03:05.835Z,5.35
2018-04-01T07:04:05.778Z,5.39
2018-04-01T07:05:05.769Z,5.38
2018-04-01T07:06:05.752Z,5.38
2018-04-01T07:07:05.785Z,5.46
2018-04-01T07:08:05.728Z,5.43
2018-04-01T07:09:05.715Z,5.46
2018-04-01T07:10:05.902Z,5.59
2018-04-01T07:11:05.685Z,5.57
2018-04-01T07:12:05.675Z,5.64
2018-04-01T07:13:05.678Z,5.64
2018-04-01T07:14:05.648Z,5.57
2018-04-01T07:15:05.635Z,5.59
2018-04-01T07:16:05.623Z,5.59
2018-04-01T07:17:05.609Z,5.59
2018-04-01T07:18:05.596Z,5.48
2018-04-01T07:19:05.583Z,5.56
2018-04-01T07:20:05.570Z,5.68
2018-04-01T07:21:05.761Z,5.65
2018-04-01T07:22:05.545Z,5.73
2018-04-01T07:23:05.532Z,5.72
2018-04-01T07:25:05.510Z,5.82
2018-04-01T07:26:05.496Z,5.66
2018-04-01T07:28:05.470Z,5.82
2018-04-01T07:29:05.460Z,5.80
2018-04-01T07:30:05.486Z,5.84
2018-04-01T07:31:05.432Z,5.71
2018-04-01T07:32:05.422Z,5.76
2018-04-01T07:33:05.409Z,5.73
2018-04-01T07:34:05.396Z,5.76
2018-04-01T07:35:05.383Z,5.75
2018-04-01T07:36:05.374Z,5.82
2018-04-01T07:37:05.360Z,5.87
2018-04-01T07:38:05.347Z,5.86
2018-04-01T07:39:05.334Z,5.86
2018-04-01T07:40:05.321Z,5.94
2018-04-01T07:41:05.370Z,6.01
2018-04-01T07:42:05.301Z,5.89
2018-04-01T07:43:05.285Z,5.87
2018-04-01T07:45:05.264Z,5.99
2018-04-01T07:46:05.252Z,5.91
2018-04-01T07:47:05.278Z,5.97
2018-04-01T07:48:05.225Z,6.01
2018-04-01T07:49:05.212Z,6.05
2018-04-01T07:50:05.199Z,5.90
2018-04-01T07:51:05.237Z,5.83
2018-04-01T07:52:05.179Z,5.98
2018-04-01T07:53:05.165Z,5.90
2018-04-01T07:54:05.151Z,5.89
2018-04-01T07:55:05.138Z,5.89
2018-04-01T07:56:05.129Z,5.87
2018-04-01T07:57:05.119Z,5.90
2018-04-01T07:58:05.305Z,5.87
2018-04-01T07:59:05.088Z,5.94
2018-04-01T08:00:05.077Z,5.98
2018-04-01T08:01:05.269Z,5.97
2018-04-01T08:02:05.052Z,6.09
2018-04-01T08:03:05.041Z,6.30
2018-04-01T08:04:05.076Z,6.41
2018-04-01T08:05:05.017Z,6.54
2018-04-01T08:06:05.088Z,6.69
2018-04-01T08:07:05.038Z,6.77
2018-04-01T08:08:05.002Z,6.64
2018-04-01T08:09:05.176Z,6.62
2018-04-01T08:10:04.964Z,6.51
2018-04-01T08:11:04.952Z,6.56
2018-04-01T08:12:04.943Z,6.54
2018-04-01T08:13:04.934Z,6.46
2018-04-01T08:14:04.922Z,6.38
2018-04-01T08:15:04.909Z,6.41
2018-04-01T08:16:04.897Z,6.46
2018-04-01T08:17:04.886Z,6.52
2018-04-01T08:18:04.876Z,6.60
2018-04-01T08:19:04.864Z,6.63
2018-04-01T08:20:05.057Z,6.74
2018-04-01T08:21:04.843Z,6.69
2018-04-01T08:22:04.833Z,6.81
2018-04-01T08:23:04.887Z,6.82
2018-04-01T08:24:04.813Z,7.06
2018-04-01T08:25:04.802Z,7.06
2018-04-01T08:26:04.844Z,7.13
2018-04-01T08:27:04.784Z,6.99
2018-04-01T08:28:04.769Z,6.99
2018-04-01T08:29:04.801Z,7.07
2018-04-01T08:30:04.751Z,7.00
2018-04-01T08:31:04.740Z,6.96
2018-04-01T08:32:04.774Z,6.79
2018-04-01T08:33:04.725Z,6.79
2018-04-01T08:34:04.713Z,6.70
2018-04-01T08:35:04.701Z,6.67
2018-04-01T08:36:04.689Z,6.69
2018-04-01T08:37:04.776Z,6.70
2018-04-01T08:38:04.669Z,6.62
2018-04-01T08:39:04.660Z,6.67
2018-04-01T08:40:04.761Z,6.63
2018-04-01T08:41:04.637Z,6.77
2018-04-01T08:42:04.626Z,6.74
2018-04-01T08:43:04.657Z,6.77
2018-04-01T08:44:04.605Z,6.88
2018-04-01T08:45:04.592Z,6.84
2018-04-01T08:46:04.585Z,6.92
2018-04-01T08:47:04.572Z,6.95
2018-04-01T08:48:04.561Z,6.97
2018-04-01T08:49:04.554Z,7.02
2018-04-01T08:50:04.540Z,6.99
2018-04-01T08:51:04.579Z,6.95
2018-04-01T08:52:04.519Z,7.13
2018-04-01T08:53:04.508Z,7.18
2018-04-01T08:55:04.487Z,7.14
2018-04-01T08:56:04.477Z,6.99
2018-04-01T08:57:04.508Z,6.96
2018-04-01T08:58:04.455Z,7.00
2018-04-01T08:59:04.448Z,6.99
2018-04-01T09:00:04.484Z,7.05
2018-04-01T09:01:04.425Z,6.99
2018-04-01T09:02:04.418Z,7.15
2018-04-01T09:03:04.403Z,7.18
2018-04-01T09:04:04.396Z,7.24
2018-04-01T09:05:04.428Z,7.32
2018-04-01T09:06:04.373Z,7.39
2018-04-01T09:07:04.363Z,7.24
2018-04-01T09:08:04.356Z,7.25
2018-04-01T09:09:04.345Z,7.28
2018-04-01T09:10:04.334Z,7.28
2018-04-01T09:11:04.321Z,7.38
2018-04-01T09:12:04.312Z,7.45
2018-04-01T09:13:04.301Z,7.51
2018-04-01T09:14:04.297Z,7.57
2018-04-01T09:15:04.281Z,7.48
2018-04-01T09:16:04.477Z,7.32
2018-04-01T09:17:04.264Z,7.23
2018-04-01T09:18:04.251Z,7.21
2018-04-01T09:19:04.281Z,7.13
2018-04-01T09:20:04.228Z,6.97
2018-04-01T09:21:04.221Z,7.07
2018-04-01T09:22:04.266Z,6.97
2018-04-01T09:23:04.198Z,7.03
2018-04-01T09:24:04.185Z,7.06
2018-04-01T09:25:04.189Z,6.97
2018-04-01T09:26:04.164Z,7.00
2018-04-01T09:27:04.151Z,7.10
2018-04-01T09:28:04.141Z,7.13
2018-04-01T09:29:04.134Z,7.06
2018-04-01T09:30:04.119Z,7.06
2018-04-01T09:31:04.110Z,7.10
2018-04-01T09:32:04.096Z,7.06
2018-04-01T09:33:04.292Z,7.07
2018-04-01T09:34:04.075Z,7.07
2018-04-01T09:35:04.062Z,7.00
2018-04-01T09:36:04.255Z,6.97
2018-04-01T09:37:04.068Z,6.97
2018-04-01T09:38:04.029Z,6.99
2018-04-01T09:39:04.068Z,6.96
2018-04-01T09:40:04.006Z,6.95
2018-04-01T09:41:03.997Z,7.07
2018-04-01T09:42:04.000Z,7.23
2018-04-01T09:43:03.973Z,7.23
2018-04-01T09:44:03.991Z,7.24
2018-04-01T09:45:03.950Z,7.25
2018-04-01T09:46:03.939Z,7.33
2018-04-01T09:47:03.927Z,7.24
2018-04-01T09:48:03.918Z,7.21
2018-04-01T09:49:03.908Z,7.21
2018-04-01T09:50:03.985Z,7.32
2018-04-01T09:51:03.883Z,7.33
2018-04-01T09:52:03.872Z,7.33
2018-04-01T09:53:04.067Z,7.48
2018-04-01T09:54:03.851Z,7.60
2018-04-01T09:55:03.844Z,7.67
2018-04-01T09:56:03.842Z,7.79
2018-04-01T09:57:03.820Z,7.80
2018-04-01T09:58:03.808Z,7.76
2018-04-01T09:59:03.797Z,7.72
2018-04-01T10:00:03.786Z,7.66
2018-04-01T10:01:03.780Z,7.51
2018-04-01T10:02:03.766Z,7.43
2018-04-01T10:03:03.754Z,7.48
2018-04-01T10:04:03.784Z,7.43
2018-04-01T10:05:03.737Z,7.39
2018-04-01T10:06:03.725Z,7.31
2018-04-01T10:07:03.712Z,7.29
2018-04-01T10:08:03.782Z,7.20
2018-04-01T10:09:03.690Z,7.24
2018-04-01T10:10:03.681Z,7.23
2018-04-01T10:11:03.736Z,7.28
2018-04-01T10:12:03.657Z,7.17
2018-04-01T10:13:03.646Z,7.21
2018-04-01T10:14:03.657Z,7.39
2018-04-01T10:15:03.624Z,7.47
2018-04-01T10:16:03.616Z,7.70
2018-04-01T10:17:03.609Z,7.93
2018-04-01T10:18:03.592Z,7.88
2018-04-01T10:19:03.582Z,7.97
2018-04-01T10:20:03.583Z,7.91
2018-04-01T10:21:03.561Z,8.01
2018-04-01T10:22:03.551Z,8.13
2018-04-01T10:23:03.541Z,8.27
2018-04-01T10:24:03.531Z,8.26
2018-04-01T10:25:03.586Z,8.30
2018-04-01T10:26:03.520Z,8.23
2018-04-01T10:27:03.501Z,8.03
2018-04-01T10:28:03.528Z,7.97
2018-04-01T10:29:03.485Z,7.85
2018-04-01T10:30:03.472Z,7.72
2018-04-01T10:31:03.467Z,7.82
2018-04-01T10:32:03.456Z,7.80
2018-04-01T10:33:03.441Z,7.63
2018-04-01T10:34:03.431Z,7.76
2018-04-01T10:35:03.421Z,7.66
2018-04-01T10:36:03.414Z,7.73
2018-04-01T10:37:03.403Z,7.72
2018-04-01T10:38:03.446Z,7.80
2018-04-01T10:39:03.466Z,7.83
2018-04-01T10:40:03.370Z,7.83
2018-04-01T10:41:03.360Z,7.75
2018-04-01T10:42:03.454Z,7.82
2018-04-01T10:43:03.340Z,7.87
2018-04-01T10:44:03.327Z,7.82
2018-04-01T10:45:03.357Z,7.82
2018-04-01T10:46:03.308Z,7.76
2018-04-01T10:47:03.295Z,7.72
2018-04-01T10:48:03.285Z,7.72
2018-04-01T10:49:03.280Z,7.61
2018-04-01T10:50:03.266Z,7.72
2018-04-01T10:51:03.253Z,7.69
2018-04-01T10:52:03.243Z,7.77
2018-04-01T10:53:03.238Z,7.70
2018-04-01T10:54:03.222Z,7.67
2018-04-01T10:55:03.241Z,7.56
2018-04-01T10:56:03.283Z,7.53
2018-04-01T10:57:03.192Z,7.51
2018-04-01T10:58:03.181Z,7.47
2018-04-01T10:59:03.218Z,7.47
2018-04-01T11:00:03.157Z,7.50
2018-04-01T11:01:03.147Z,7.48
2018-04-01T11:02:03.181Z,7.57
2018-04-01T11:03:03.123Z,7.56
2018-04-01T11:04:03.111Z,7.50
2018-04-01T11:05:03.356Z,7.50
2018-04-01T11:06:03.090Z,7.47
2018-04-01T11:07:03.080Z,7.50
2018-04-01T11:08:03.113Z,7.47
2018-04-01T11:09:03.058Z,7.48
2018-04-01T11:10:03.045Z,7.50
2018-04-01T11:11:03.080Z,7.61
2018-04-01T11:12:03.023Z,7.56
2018-04-01T11:13:03.014Z,7.51
2018-04-01T11:14:03.001Z,7.60
2018-04-01T11:15:02.988Z,7.72
2018-04-01T11:16:02.981Z,7.56
2018-04-01T11:17:02.969Z,7.63
2018-04-01T11:18:02.959Z,7.61
2018-04-01T11:19:02.943Z,7.66
2018-04-01T11:20:02.934Z,7.70
2018-04-01T11:21:02.923Z,7.73
2018-04-01T11:22:02.983Z,7.63
2018-04-01T11:23:02.899Z,7.66
2018-04-01T11:24:02.896Z,7.66
2018-04-01T11:25:02.921Z,7.61
2018-04-01T11:26:02.889Z,7.63
2018-04-01T11:27:02.854Z,7.72
2018-04-01T11:28:02.872Z,7.72
2018-04-01T11:29:02.832Z,7.80
2018-04-01T11:30:02.822Z,7.82
2018-04-01T11:31:02.809Z,7.72
2018-04-01T11:32:02.800Z,7.60
2018-04-01T11:33:02.787Z,7.50
2018-04-01T11:34:02.777Z,7.54
2018-04-01T11:35:02.763Z,7.56
2018-04-01T11:36:02.956Z,7.45
2018-04-01T11:37:02.742Z,7.48
2018-04-01T11:38:02.734Z,7.39
2018-04-01T11:40:02.711Z,7.40
2018-04-01T11:41:02.696Z,7.50
2018-04-01T11:42:02.738Z,7.57
2018-04-01T11:43:02.681Z,7.57
2018-04-01T11:44:02.661Z,7.54
2018-04-01T11:45:02.854Z,7.56
2018-04-01T11:46:02.645Z,7.54
2018-04-01T11:47:02.626Z,7.56
2018-04-01T11:48:02.718Z,7.70
2018-04-01T11:49:02.605Z,7.66
2018-04-01T11:50:02.595Z,7.76
2018-04-01T11:51:02.611Z,7.72
2018-04-01T11:52:02.576Z,7.80
2018-04-01T11:53:02.558Z,7.87
2018-04-01T11:54:02.547Z,7.88
2018-04-01T11:55:02.536Z,7.97
2018-04-01T11:56:02.524Z,8.01
2018-04-01T11:57:02.516Z,8.03
2018-04-01T11:58:02.511Z,8.06
2018-04-01T11:59:02.543Z,7.98
2018-04-01T12:00:02.480Z,8.00
2018-04-01T12:01:02.471Z,7.94
2018-04-01T12:02:02.458Z,7.94
2018-04-01T12:03:02.450Z,8.00
2018-04-01T12:04:02.436Z,7.82
2018-04-01T12:05:02.428Z,7.83
2018-04-01T12:06:02.417Z,7.77
2018-04-01T12:07:02.402Z,7.51
2018-04-01T12:08:02.471Z,7.51
2018-04-01T12:09:02.387Z,7.39
2018-04-01T12:10:02.374Z,7.39
2018-04-01T12:11:02.395Z,7.38
2018-04-01T12:12:02.347Z,7.32
2018-04-01T12:13:02.337Z,7.36
2018-04-01T12:14:02.356Z,7.35
2018-04-01T12:15:02.311Z,7.40
2018-04-01T12:16:02.357Z,7.43
2018-04-01T12:17:02.287Z,7.60
2018-04-01T12:18:02.281Z,7.63
2018-04-01T12:19:02.264Z,7.82
2018-04-01T12:20:02.261Z,8.06
2018-04-01T12:21:02.242Z,8.18
2018-04-01T12:22:02.231Z,8.31
2018-04-01T12:23:02.223Z,8.53
2018-04-01T12:24:02.218Z,8.64
2018-04-01T12:25:02.298Z,8.89
2018-04-01T12:26:02.189Z,8.95
2018-04-01T12:27:02.183Z,9.02
2018-04-01T12:29:02.159Z,9.18
2018-04-01T12:30:02.154Z,9.18
2018-04-01T12:31:02.180Z,9.06
2018-04-01T12:32:02.131Z,9.19
2018-04-01T12:33:02.124Z,9.18
2018-04-01T12:34:02.112Z,9.21
2018-04-01T12:35:02.103Z,9.13
2018-04-01T12:36:02.092Z,9.00
2018-04-01T12:37:02.083Z,9.04
2018-04-01T12:38:02.075Z,9.02
2018-04-01T12:39:02.303Z,9.02
2018-04-01T12:40:02.055Z,8.87
2018-04-01T12:41:02.046Z,8.84
2018-04-01T12:42:02.129Z,8.74
2018-04-01T12:43:02.025Z,8.56
2018-04-01T12:44:02.016Z,8.51
2018-04-01T12:45:02.043Z,8.34
2018-04-01T12:46:01.996Z,8.27
2018-04-01T12:47:01.989Z,8.24
2018-04-01T12:48:01.975Z,8.33
2018-04-01T12:49:01.964Z,8.26
2018-04-01T12:50:01.954Z,8.24
2018-04-01T12:51:01.943Z,8.20
2018-04-01T12:52:01.932Z,8.31
2018-04-01T12:53:01.930Z,8.18
2018-04-01T12:54:01.913Z,8.31
2018-04-01T12:55:01.903Z,8.30
2018-04-01T12:56:01.984Z,8.27
2018-04-01T12:57:01.880Z,8.38
2018-04-01T12:58:01.869Z,8.45
2018-04-01T12:59:01.895Z,8.56
2018-04-01T13:00:01.850Z,8.53
2018-04-01T13:01:01.836Z,8.61
2018-04-01T13:02:01.838Z,8.55
2018-04-01T13:03:01.818Z,8.49
2018-04-01T13:04:01.805Z,8.60
2018-04-01T13:05:01.796Z,8.46
2018-04-01T13:06:01.785Z,8.45
2018-04-01T13:07:01.776Z,8.42
2018-04-01T13:08:01.972Z,8.48
2018-04-01T13:09:01.753Z,8.51
2018-04-01T13:10:01.743Z,8.48
2018-04-01T13:11:01.798Z,8.49
2018-04-01T13:12:01.720Z,8.45
2018-04-01T13:13:01.710Z,8.42
2018-04-01T13:14:01.722Z,8.36
2018-04-01T13:15:01.687Z,8.31
2018-04-01T13:16:01.676Z,8.30
2018-04-01T13:17:01.669Z,8.33
2018-04-01T13:18:01.657Z,8.31
2018-04-01T13:19:01.643Z,8.26
2018-04-01T13:20:01.633Z,8.23
2018-04-01T13:21:01.622Z,8.19
2018-04-01T13:22:01.619Z,8.16
2018-04-01T13:23:01.599Z,8.19
2018-04-01T13:24:01.588Z,8.19
2018-04-01T13:25:01.814Z,8.13